createdAt,value
2022-12-28T00:01:48.082Z,9.57
2022-12-28T00:04:15.716Z,10.63
2022-12-28T00:06:42.890Z,12.87
2022-12-28T00:09:13.344Z,10.67
2022-12-28T00:11:40.591Z,11.93
2022-12-28T00:14:08.209Z,12.20
2022-12-28T00:16:40.070Z,10.67
2022-12-28T00:19:17.297Z,10.70
2022-12-28T00:21:47.833Z,10.47
2022-12-28T00:24:30.890Z,12.53
2022-12-28T00:26:58.383Z,9.17
2022-12-28T00:29:25.234Z,13.77
2022-12-28T00:31:52.373Z,10.47
2022-12-28T00:34:19.507Z,12.50
2022-12-28T00:37:09.634Z,13.83
2022-12-28T00:39:41.084Z,17.70
2022-12-28T00:42:08.736Z,8.97
2022-12-28T00:44:36.337Z,10.93
2022-12-28T00:47:03.891Z,9.57
2022-12-28T00:49:32.994Z,11.97
2022-12-28T00:52:10.292Z,10.67
2022-12-28T00:54:44.293Z,8.03
2022-12-28T00:57:16.780Z,12.97
2022-12-28T00:59:53.337Z,9.23
2022-12-28T01:02:23.145Z,11.50
2022-12-28T01:04:50.192Z,11.83
2022-12-28T01:07:17.147Z,12.47
2022-12-28T01:09:44.273Z,13.10
2022-12-28T01:12:12.038Z,10.47
2022-12-28T01:14:39.615Z,9.60
2022-12-28T01:17:07.279Z,11.83
2022-12-28T01:19:34.471Z,11.77
2022-12-28T01:22:01.466Z,12.80
2022-12-28T01:24:28.524Z,14.30
2022-12-28T01:27:01.296Z,8.73
2022-12-28T01:29:28.467Z,11.73
2022-12-28T01:31:55.710Z,12.07
2022-12-28T01:34:22.678Z,15.00
2022-12-28T01:36:49.969Z,12.33
2022-12-28T01:39:17.116Z,14.07
2022-12-28T01:41:44.319Z,11.50
2022-12-28T01:44:11.399Z,12.40
2022-12-28T01:46:51.513Z,12.57
2022-12-28T01:49:30.257Z,13.63
2022-12-28T01:52:16.089Z,14.93
2022-12-28T01:54:54.121Z,11.93
2022-12-28T01:57:30.289Z,11.00
2022-12-28T02:00:09.725Z,11.97
2022-12-28T02:02:37.198Z,11.83
2022-12-28T02:05:04.934Z,10.80
2022-12-28T02:08:04.726Z,12.43
2022-12-28T02:10:44.457Z,13.53
2022-12-28T02:13:15.201Z,12.17
2022-12-28T02:15:42.510Z,13.77
2022-12-28T02:18:11.464Z,15.47
2022-12-28T02:21:03.497Z,12.87
2022-12-28T02:24:12.350Z,15.13
2022-12-28T02:26:58.576Z,13.63
2022-12-28T02:29:38.611Z,13.97
2022-12-28T02:32:42.497Z,11.80
2022-12-28T02:35:44.243Z,12.63
2022-12-28T02:38:36.852Z,12.63
2022-12-28T02:41:25.716Z,12.97
2022-12-28T02:43:55.068Z,11.87
2022-12-28T02:46:44.672Z,13.80
2022-12-28T02:49:41.592Z,13.60
2022-12-28T02:52:23.684Z,13.40
2022-12-28T02:56:09.251Z,13.40
2022-12-28T02:58:57.877Z,13.87
2022-12-28T03:01:43.926Z,11.63
2022-12-28T03:04:27.799Z,11.70
2022-12-28T03:07:25.528Z,14.00
2022-12-28T03:10:05.439Z,15.27
2022-12-28T03:12:45.739Z,13.37
2022-12-28T03:15:34.958Z,12.57
2022-12-28T03:18:41.592Z,14.00
2022-12-28T03:21:33.812Z,19.30
2022-12-28T03:24:23.606Z,15.43
2022-12-28T03:27:11.817Z,14.90
2022-12-28T03:30:07.113Z,14.60
2022-12-28T03:32:34.578Z,13.03
2022-12-28T03:35:01.917Z,17.13
2022-12-28T03:37:44.336Z,15.97
2022-12-28T03:40:52.464Z,14.77
2022-12-28T03:43:45.538Z,14.93
2022-12-28T03:46:23.229Z,15.13
2022-12-28T03:48:59.812Z,14.70
2022-12-28T03:51:29.797Z,13.97
2022-12-28T03:53:59.711Z,15.40
2022-12-28T03:56:28.308Z,14.13
2022-12-28T03:58:56.683Z,15.90
2022-12-28T04:01:24.286Z,19.00
2022-12-28T04:04:00.898Z,19.40
2022-12-28T04:06:31.052Z,15.40
2022-12-28T04:09:08.379Z,14.27
2022-12-28T04:11:41.829Z,15.77
2022-12-28T04:14:12.311Z,13.67
2022-12-28T04:16:48.763Z,13.60
2022-12-28T04:19:16.579Z,14.67
2022-12-28T04:21:53.674Z,14.77
2022-12-28T04:24:21.549Z,17.20
2022-12-28T04:26:55.157Z,17.97
2022-12-28T04:29:28.848Z,17.47
2022-12-28T04:31:59.031Z,16.50
2022-12-28T04:34:33.781Z,13.70
2022-12-28T04:37:10.758Z,16.13
2022-12-28T04:39:57.411Z,14.80
2022-12-28T04:42:40.916Z,14.23
2022-12-28T04:45:09.840Z,15.27
2022-12-28T04:47:41.439Z,16.33
2022-12-28T04:50:09.956Z,17.53
2022-12-28T04:52:38.009Z,14.53
2022-12-28T04:55:09.168Z,13.63
2022-12-28T04:58:04.872Z,17.70
2022-12-28T05:00:35.613Z,17.97
2022-12-28T05:03:03.365Z,15.90
2022-12-28T05:05:36.129Z,16.00
2022-12-28T05:08:07.199Z,19.83
2022-12-28T05:10:39.430Z,17.33
2022-12-28T05:13:07.045Z,15.30
2022-12-28T05:15:37.198Z,16.57
2022-12-28T05:18:13.712Z,17.13
2022-12-28T05:20:44.753Z,14.27
2022-12-28T05:23:12.310Z,21.87
2022-12-28T05:25:43.248Z,20.87
2022-12-28T05:28:19.145Z,19.80
2022-12-28T05:30:48.334Z,16.93
2022-12-28T05:33:26.136Z,18.37
2022-12-28T05:35:57.555Z,17.97
2022-12-28T05:38:28.420Z,19.30
2022-12-28T05:41:11.713Z,20.10
2022-12-28T05:43:39.994Z,15.57
2022-12-28T05:46:15.363Z,18.90
2022-12-28T05:48:49.937Z,17.57
2022-12-28T05:51:32.366Z,15.63
2022-12-28T05:54:05.050Z,18.97
2022-12-28T05:56:38.138Z,20.83
2022-12-28T05:59:08.088Z,16.50
2022-12-28T06:01:39.355Z,18.17
2022-12-28T06:04:16.505Z,19.70
2022-12-28T06:06:48.168Z,24.40
2022-12-28T06:09:18.616Z,20.33
2022-12-28T06:11:49.231Z,20.30
2022-12-28T06:14:16.908Z,22.33
2022-12-28T06:16:47.835Z,20.20
2022-12-28T06:19:15.766Z,18.80
2022-12-28T06:21:55.780Z,20.93
2022-12-28T06:24:23.479Z,19.03
2022-12-28T06:26:54.069Z,26.30
2022-12-28T06:29:21.424Z,24.63
2022-12-28T06:31:57.622Z,22.00
2022-12-28T06:34:30.814Z,23.37
2022-12-28T06:37:00.836Z,24.67
2022-12-28T06:39:29.274Z,22.07
2022-12-28T06:41:56.503Z,23.97
2022-12-28T06:44:23.983Z,21.80
2022-12-28T06:46:54.037Z,22.97
2022-12-28T06:49:29.780Z,22.07
2022-12-28T06:52:00.269Z,23.07
2022-12-28T06:54:27.383Z,21.10
2022-12-28T06:56:54.625Z,19.80
2022-12-28T06:59:22.251Z,20.87
2022-12-28T07:01:50.162Z,21.33
2022-12-28T07:04:23.545Z,21.50
2022-12-28T07:07:00.219Z,22.30
2022-12-28T07:09:30.167Z,22.63
2022-12-28T07:11:57.428Z,19.07
2022-12-28T07:14:25.064Z,22.43
2022-12-28T07:16:52.176Z,22.00
2022-12-28T07:19:19.545Z,19.33
2022-12-28T07:21:50.318Z,20.83
2022-12-28T07:24:17.537Z,23.27
2022-12-28T07:26:45.525Z,19.23
2022-12-28T07:29:12.945Z,18.63
2022-12-28T07:31:45.142Z,22.07
2022-12-28T07:34:19.995Z,21.77
2022-12-28T07:36:52.623Z,21.10
2022-12-28T07:39:19.760Z,20.60
2022-12-28T07:41:47.022Z,19.07
2022-12-28T07:44:13.907Z,18.37
2022-12-28T07:46:41.088Z,16.20
2022-12-28T07:49:11.649Z,20.67
2022-12-28T07:51:39.559Z,19.20
2022-12-28T07:54:10.147Z,19.43
2022-12-28T07:59:06.910Z,19.03
2022-12-28T08:01:35.722Z,16.00
2022-12-28T08:04:07.854Z,19.30
2022-12-28T08:06:37.640Z,20.70
2022-12-28T08:09:06.547Z,16.53
2022-12-28T08:11:36.385Z,15.63
2022-12-28T08:14:03.895Z,16.70
2022-12-28T08:16:34.423Z,19.37
2022-12-28T08:19:02.039Z,16.37
2022-12-28T08:21:35.046Z,18.40
2022-12-28T08:24:02.905Z,20.30
2022-12-28T08:26:35.059Z,22.42
2022-12-28T08:29:04.538Z,18.70
2022-12-28T08:31:41.230Z,17.47
2022-12-28T08:34:14.890Z,17.70
2022-12-28T08:36:44.848Z,16.33
2022-12-28T08:39:11.885Z,18.70
2022-12-28T08:41:39.026Z,18.00
2022-12-28T08:44:06.468Z,17.10
2022-12-28T08:46:35.369Z,19.20
2022-12-28T08:49:03.366Z,16.13
2022-12-28T08:51:38.894Z,14.87
2022-12-28T08:54:06.979Z,15.97
2022-12-28T08:56:37.506Z,19.43
2022-12-28T08:59:07.725Z,15.47
2022-12-28T09:01:43.591Z,14.87
2022-12-28T09:04:19.480Z,15.00
2022-12-28T09:06:47.140Z,17.33
2022-12-28T09:09:16.597Z,16.13
2022-12-28T09:11:44.898Z,15.63
2022-12-28T09:14:22.020Z,18.80
2022-12-28T09:16:49.826Z,17.03
2022-12-28T09:19:19.575Z,16.70
2022-12-28T09:21:49.334Z,15.13
2022-12-28T09:24:16.927Z,15.33
2022-12-28T09:26:47.276Z,13.40
2022-12-28T09:29:14.583Z,16.20
2022-12-28T09:31:44.116Z,14.93
2022-12-28T09:37:01.620Z,14.77
2022-12-28T09:39:29.814Z,12.70
2022-12-28T09:42:02.738Z,12.80
2022-12-28T09:44:32.851Z,14.93
2022-12-28T09:47:30.832Z,13.67
2022-12-28T09:50:39.092Z,11.83
2022-12-28T09:53:12.241Z,13.63
2022-12-28T09:55:41.641Z,11.17
2022-12-28T09:58:16.674Z,12.80
2022-12-28T10:00:54.105Z,13.43
2022-12-28T10:03:43.898Z,9.50
2022-12-28T10:06:51.391Z,13.57
2022-12-28T10:09:27.109Z,11.13
2022-12-28T10:12:28.904Z,10.67
2022-12-28T10:14:59.968Z,10.17
2022-12-28T10:17:41.880Z,12.83
2022-12-28T10:20:17.122Z,11.20
2022-12-28T10:23:16.004Z,12.33
2022-12-28T10:25:56.703Z,10.67
2022-12-28T10:28:50.580Z,11.00
2022-12-28T10:31:36.340Z,12.03
2022-12-28T10:34:15.940Z,13.53
2022-12-28T10:36:44.898Z,12.30
2022-12-28T10:39:36.694Z,9.93
2022-12-28T10:42:04.424Z,13.33
2022-12-28T10:44:40.066Z,10.03
2022-12-28T10:47:25.361Z,12.80
2022-12-28T10:52:40.208Z,9.83
2022-12-28T10:59:54.955Z,11.87
2022-12-28T11:02:37.285Z,11.43
2022-12-28T11:05:30.218Z,12.90
2022-12-28T11:08:17.495Z,13.83
2022-12-28T11:11:21.681Z,12.83
2022-12-28T11:17:20.065Z,15.97
2022-12-28T11:19:54.033Z,13.77
2022-12-28T11:22:25.789Z,14.00
2022-12-28T11:24:57.131Z,16.00
2022-12-28T11:27:25.003Z,15.80
2022-12-28T11:29:55.733Z,16.50
2022-12-28T11:32:33.699Z,15.77
2022-12-28T11:35:01.820Z,15.10
2022-12-28T11:37:29.070Z,14.63
2022-12-28T11:39:56.513Z,15.80
2022-12-28T11:42:41.251Z,17.23
2022-12-28T11:45:17.166Z,16.57
2022-12-28T11:47:49.686Z,16.97
2022-12-28T11:50:39.007Z,14.10
2022-12-28T11:53:34.080Z,14.13
2022-12-28T11:56:12.545Z,14.87
2022-12-28T11:58:42.881Z,17.93
2022-12-28T12:01:29.260Z,12.63
2022-12-28T12:07:01.560Z,11.20
2022-12-28T12:09:33.241Z,15.67
2022-12-28T12:12:20.629Z,15.03
2022-12-28T12:14:57.504Z,13.83
2022-12-28T12:17:43.281Z,12.43
2022-12-28T12:20:43.210Z,14.47
2022-12-28T12:23:40.510Z,13.53
2022-12-28T12:26:21.107Z,13.23
2022-12-28T12:29:55.148Z,12.33
2022-12-28T12:33:28.297Z,12.67
2022-12-28T12:37:08.271Z,15.33
2022-12-28T12:44:21.120Z,11.83
2022-12-28T12:47:14.696Z,14.83
2022-12-28T12:49:56.910Z,13.47
2022-12-28T12:52:56.499Z,13.23
2022-12-28T12:56:25.701Z,17.03
2022-12-28T13:03:41.903Z,12.47
2022-12-28T13:06:18.495Z,15.53
2022-12-28T13:08:53.287Z,14.80
2022-12-28T13:11:23.700Z,11.13
2022-12-28T13:14:00.739Z,12.60
2022-12-28T13:16:31.169Z,13.67
2022-12-28T13:19:07.634Z,12.33
2022-12-28T13:21:50.908Z,11.93
2022-12-28T13:28:24.732Z,15.30
2022-12-28T13:31:24.349Z,13.07
2022-12-28T13:34:31.147Z,13.47
2022-12-28T13:37:27.426Z,13.60
2022-12-28T13:41:00.005Z,13.40
2022-12-28T13:54:10.944Z,11.23
2022-12-28T13:59:28.545Z,11.40
2022-12-28T14:02:07.982Z,10.87
2022-12-28T14:04:52.464Z,10.87
2022-12-28T14:07:33.020Z,11.37
2022-12-28T14:10:03.190Z,13.70
2022-12-28T14:12:46.777Z,11.07
2022-12-28T14:15:29.097Z,9.30
2022-12-28T14:18:03.857Z,9.43
2022-12-28T14:24:58.542Z,14.17
2022-12-28T14:31:13.072Z,11.93
2022-12-28T14:34:02.164Z,10.47
2022-12-28T14:36:35.365Z,11.70
2022-12-28T14:39:05.199Z,11.53
2022-12-28T14:41:40.053Z,10.90
2022-12-28T14:44:19.244Z,12.27
2022-12-28T14:46:46.326Z,11.47
2022-12-28T14:49:33.159Z,11.40
2022-12-28T14:52:09.120Z,10.77
2022-12-28T14:54:45.137Z,9.90
2022-12-28T14:57:31.695Z,10.80
2022-12-28T15:00:11.943Z,10.50
2022-12-28T15:02:41.584Z,9.10
2022-12-28T15:06:03.111Z,8.67
2022-12-28T15:12:38.657Z,8.50
2022-12-28T15:15:18.919Z,11.80
2022-12-28T15:17:48.960Z,12.07
2022-12-28T15:20:17.688Z,10.83
2022-12-28T15:22:44.690Z,11.70
2022-12-28T15:25:15.001Z,11.93
2022-12-28T15:27:45.279Z,9.20
2022-12-28T15:30:29.103Z,10.70
2022-12-28T15:32:57.097Z,9.90
2022-12-28T15:35:24.568Z,11.10
2022-12-28T15:37:57.876Z,9.40
2022-12-28T15:40:24.901Z,14.20
2022-12-28T15:42:54.536Z,11.57
2022-12-28T15:45:21.614Z,9.63
2022-12-28T15:47:49.219Z,11.50
2022-12-28T15:50:23.051Z,9.80
2022-12-28T15:52:58.982Z,10.80
2022-12-28T15:55:28.701Z,11.77
2022-12-28T15:57:56.012Z,10.70
2022-12-28T16:00:23.108Z,10.73
2022-12-28T16:02:50.174Z,11.23
2022-12-28T16:05:19.704Z,13.33
2022-12-28T16:07:46.617Z,10.40
2022-12-28T16:10:13.849Z,11.07
2022-12-28T16:12:40.964Z,11.50
2022-12-28T16:15:09.740Z,10.90
2022-12-28T16:17:48.602Z,12.07
2022-12-28T16:20:27.865Z,11.60
2022-12-28T16:22:57.965Z,14.27
2022-12-28T16:25:57.588Z,14.97
2022-12-28T16:28:33.654Z,11.50
2022-12-28T16:31:00.826Z,13.77
2022-12-28T16:33:31.302Z,11.40
2022-12-28T16:35:59.985Z,13.30
2022-12-28T16:38:28.907Z,14.07
2022-12-28T16:40:57.135Z,15.23
2022-12-28T16:43:24.245Z,11.73
2022-12-28T16:45:51.532Z,13.83
2022-12-28T16:48:18.451Z,14.40
2022-12-28T16:50:45.315Z,13.13
2022-12-28T16:53:12.442Z,15.00
2022-12-28T16:55:42.160Z,12.37
2022-12-28T16:58:10.056Z,15.27
2022-12-28T17:00:40.228Z,11.97
2022-12-28T17:03:12.765Z,13.33
2022-12-28T17:05:39.892Z,14.40
2022-12-28T17:08:06.887Z,13.67
2022-12-28T17:10:34.209Z,13.50
2022-12-28T17:13:01.010Z,12.93
2022-12-28T17:15:27.843Z,12.87
2022-12-28T17:17:54.632Z,12.07
2022-12-28T17:20:22.290Z,11.40
2022-12-28T17:22:49.302Z,14.17
2022-12-28T17:25:16.246Z,14.00
2022-12-28T17:27:43.166Z,12.83
2022-12-28T17:30:10.512Z,13.73
2022-12-28T17:32:37.984Z,14.70
2022-12-28T17:35:05.083Z,14.53
2022-12-28T17:37:31.884Z,14.40
2022-12-28T17:39:58.738Z,15.00
2022-12-28T17:42:25.567Z,15.10
2022-12-28T17:44:52.385Z,13.80
2022-12-28T17:47:19.221Z,14.20
2022-12-28T17:49:46.035Z,12.20
2022-12-28T17:52:17.345Z,14.83
2022-12-28T17:54:44.179Z,12.83
2022-12-28T17:57:11.187Z,17.93
2022-12-28T17:59:38.007Z,13.10
2022-12-28T18:02:09.005Z,15.27
2022-12-28T18:04:37.073Z,12.67
2022-12-28T18:07:04.442Z,15.30
2022-12-28T18:09:31.264Z,15.63
2022-12-28T18:11:58.275Z,15.03
2022-12-28T18:14:26.650Z,17.27
2022-12-28T18:16:55.203Z,16.73
2022-12-28T18:19:22.068Z,13.90
2022-12-28T18:21:49.028Z,11.97
2022-12-28T18:24:17.979Z,14.87
2022-12-28T18:26:44.813Z,15.03
2022-12-28T18:29:11.648Z,14.30
2022-12-28T18:31:38.489Z,15.03
2022-12-28T18:34:05.446Z,14.17
2022-12-28T18:36:32.281Z,14.23
2022-12-28T18:38:59.279Z,14.00
2022-12-28T18:41:32.052Z,15.73
2022-12-28T18:44:02.780Z,14.20
2022-12-28T18:46:29.880Z,16.03
2022-12-28T18:48:56.967Z,12.83
2022-12-28T18:51:23.839Z,13.07
2022-12-28T18:53:50.976Z,15.43
2022-12-28T18:56:20.172Z,13.00
2022-12-28T18:58:52.827Z,14.77
2022-12-28T19:04:10.089Z,11.73
2022-12-28T19:06:37.668Z,13.90
2022-12-28T19:09:06.308Z,14.27
2022-12-28T19:11:33.332Z,14.40
2022-12-28T19:14:05.813Z,15.80
2022-12-28T19:16:33.125Z,15.33
2022-12-28T19:19:00.627Z,10.37
2022-12-28T19:21:33.709Z,11.57
2022-12-28T19:24:03.659Z,14.73
2022-12-28T19:26:32.504Z,12.27
2022-12-28T19:28:59.923Z,13.63
2022-12-28T19:31:27.928Z,12.13
2022-12-28T19:33:54.913Z,11.97
2022-12-28T19:36:21.756Z,9.73
2022-12-28T19:38:48.804Z,11.80
2022-12-28T19:41:16.512Z,12.60
2022-12-28T19:43:44.310Z,12.47
2022-12-28T19:46:17.547Z,11.53
2022-12-28T19:48:45.239Z,12.83
2022-12-28T19:51:13.176Z,11.80
2022-12-28T19:53:40.113Z,11.67
2022-12-28T19:56:13.098Z,13.37
2022-12-28T19:58:40.502Z,12.67
2022-12-28T20:01:15.609Z,9.40
2022-12-28T20:03:43.708Z,11.87
2022-12-28T20:06:13.128Z,10.03
2022-12-28T20:08:40.717Z,11.30
2022-12-28T20:11:07.663Z,10.80
2022-12-28T20:13:34.827Z,12.47
2022-12-28T20:16:01.930Z,11.30
2022-12-28T20:18:29.076Z,14.30
2022-12-28T20:21:19.496Z,11.97
2022-12-28T20:23:48.291Z,11.43
2022-12-28T20:26:15.598Z,10.83
2022-12-28T20:28:42.571Z,12.53
2022-12-28T20:31:12.848Z,12.90
2022-12-28T20:33:40.422Z,10.97
2022-12-28T20:36:13.325Z,9.63
2022-12-28T20:38:40.258Z,11.13
2022-12-28T20:41:38.128Z,10.10
2022-12-28T20:44:13.438Z,11.80
2022-12-28T20:46:41.812Z,9.90
2022-12-28T20:49:09.307Z,11.37
2022-12-28T20:51:36.723Z,10.87
2022-12-28T20:54:03.911Z,13.27
2022-12-28T20:56:30.759Z,12.23
2022-12-28T20:58:58.647Z,13.03
2022-12-28T21:01:25.626Z,13.67
2022-12-28T21:03:52.667Z,13.37
2022-12-28T21:06:19.624Z,13.63
2022-12-28T21:08:46.546Z,11.83
2022-12-28T21:11:13.427Z,16.67
2022-12-28T21:13:44.683Z,11.63
2022-12-28T21:16:13.118Z,11.23
2022-12-28T21:18:40.088Z,12.70
2022-12-28T21:21:13.042Z,13.00
2022-12-28T21:23:39.851Z,11.67
2022-12-28T21:26:10.761Z,12.87
2022-12-28T21:28:37.740Z,13.27
2022-12-28T21:31:06.183Z,11.63
2022-12-28T21:33:33.858Z,12.23
2022-12-28T21:36:11.929Z,13.00
2022-12-28T21:38:39.943Z,15.43
2022-12-28T21:41:39.825Z,11.03
2022-12-28T21:44:11.560Z,12.57
2022-12-28T21:46:38.574Z,14.13
2022-12-28T21:49:06.290Z,13.23
2022-12-28T21:51:37.429Z,13.40
2022-12-28T21:54:13.108Z,13.77
2022-12-28T21:56:41.166Z,14.20
2022-12-28T21:59:08.745Z,13.70
2022-12-28T22:01:55.314Z,11.33
2022-12-28T22:04:42.203Z,12.70
2022-12-28T22:07:12.218Z,11.93
2022-12-28T22:09:58.091Z,12.87
2022-12-28T22:12:35.575Z,12.23
2022-12-28T22:15:22.808Z,13.73
2022-12-28T22:17:51.657Z,12.67
2022-12-28T22:20:18.570Z,10.60
2022-12-28T22:22:45.474Z,13.50
2022-12-28T22:25:13.520Z,13.60
2022-12-28T22:27:40.738Z,10.90
2022-12-28T22:30:08.359Z,12.97
2022-12-28T22:32:35.198Z,12.20
2022-12-28T22:35:02.030Z,10.73
2022-12-28T22:37:28.827Z,9.47
2022-12-28T22:39:55.643Z,11.60
2022-12-28T22:42:22.539Z,10.57
2022-12-28T22:44:49.424Z,12.30
2022-12-28T22:47:16.301Z,10.87
2022-12-28T22:49:43.282Z,13.40
2022-12-28T22:52:11.400Z,11.20
2022-12-28T22:54:38.334Z,11.97
2022-12-28T22:57:07.293Z,12.67
2022-12-28T22:59:34.530Z,13.37
2022-12-28T23:02:01.553Z,10.53
2022-12-28T23:04:28.686Z,10.27
2022-12-28T23:07:01.564Z,11.53
2022-12-28T23:09:30.285Z,11.43
2022-12-28T23:11:57.256Z,10.37
2022-12-28T23:14:44.626Z,10.60
2022-12-28T23:17:14.515Z,10.90
2022-12-28T23:20:01.921Z,9.90
2022-12-28T23:22:49.760Z,11.70
2022-12-28T23:25:43.348Z,12.37
2022-12-28T23:28:15.639Z,11.70
2022-12-28T23:30:46.155Z,9.43
2022-12-28T23:33:13.519Z,11.47
2022-12-28T23:35:40.411Z,11.10
2022-12-28T23:38:07.202Z,11.10
2022-12-28T23:40:34.045Z,10.27
2022-12-28T23:43:00.980Z,9.83
2022-12-28T23:45:27.957Z,10.50
2022-12-28T23:47:55.387Z,9.30
2022-12-28T23:50:22.373Z,9.53
2022-12-28T23:52:49.378Z,10.60
2022-12-28T23:55:16.345Z,11.23
2022-12-28T23:57:43.189Z,10.97
